Time;durP1;ratioP1;P1;durP2;ratioP2;P2;SDS_P1;SDS_P2;PMS_P1;PMS_P2;Temp;Humidity;BMP_temperature;BMP_pressure;BME280_temperature;BME280_humidity;BME280_pressure;Samples;Min_cycle;Max_cycle;Signal;HPM_P1;HPM_P2
2022/05/06 00:01:52;;;;;;;3.55;0.80;;;;;;;;;;5039845;28;20735;-62
2022/05/06 00:04:19;;;;;;;4.75;1.00;;;;;;;;;;5038617;28;20049;-64
2022/05/06 00:06:46;;;;;;;6.07;0.95;;;;;;;;;;5039142;28;20037;-63
2022/05/06 00:09:12;;;;;;;4.13;0.77;;;;;;;;;;5040002;28;20083;-66
2022/05/06 00:11:39;;;;;;;3.70;0.63;;;;;;;;;;5037048;28;20216;-66
2022/05/06 00:14:06;;;;;;;3.80;0.80;;;;;;;;;;5037990;28;20049;-66
2022/05/06 00:16:32;;;;;;;3.50;0.80;;;;;;;;;;5037829;28;21766;-67
2022/05/06 00:18:59;;;;;;;1.92;0.60;;;;;;;;;;5037962;28;20033;-65
2022/05/06 00:21:26;;;;;;;2.75;0.63;;;;;;;;;;5038549;28;20028;-65
2022/05/06 00:23:52;;;;;;;3.10;0.70;;;;;;;;;;5038152;28;20052;-66
2022/05/06 00:26:19;;;;;;;2.92;0.70;;;;;;;;;;5039043;28;20047;-67
2022/05/06 00:28:46;;;;;;;5.82;1.20;;;;;;;;;;5038908;28;20052;-66
2022/05/06 00:31:22;;;;;;;4.35;1.00;;;;;;;;;;5069078;27;20770;-71
2022/05/06 00:33:49;;;;;;;3.65;0.88;;;;;;;;;;5068859;28;20037;-66
2022/05/06 00:36:15;;;;;;;3.10;1.00;;;;;;;;;;5039945;28;20041;-67
2022/05/06 00:38:43;;;;;;;3.50;0.93;;;;;;;;;;5038160;28;20030;-67
2022/05/06 00:41:10;;;;;;;3.17;0.85;;;;;;;;;;5072493;28;20045;-66
2022/05/06 00:43:42;;;;;;;4.60;0.75;;;;;;;;;;5053775;28;20038;-66
2022/05/06 00:46:09;;;;;;;;;;;;;;;;;;5048137;28;20115;-66
2022/05/06 00:48:35;;;;;;;2.97;0.70;;;;;;;;;;5037961;28;19917;-67
2022/05/06 00:51:06;;;;;;;3.70;0.88;;;;;;;;;;5040811;28;20115;-66
2022/05/06 00:53:35;;;;;;;3.95;0.88;;;;;;;;;;5039776;28;20128;-67
2022/05/06 00:56:02;;;;;;;2.90;0.90;;;;;;;;;;5040753;28;20057;-68
2022/05/06 00:58:30;;;;;;;4.53;0.80;;;;;;;;;;5040218;28;20072;-66
2022/05/06 01:00:56;;;;;;;5.32;0.90;;;;;;;;;;5038676;28;20045;-66
2022/05/06 01:03:23;;;;;;;2.85;0.80;;;;;;;;;;5037384;28;21573;-64
2022/05/06 01:05:50;;;;;;;9.57;1.00;;;;;;;;;;5037851;28;20036;-63
2022/05/06 01:08:17;;;;;;;3.63;0.98;;;;;;;;;;5038535;28;21807;-66
2022/05/06 01:10:44;;;;;;;3.00;0.90;;;;;;;;;;5063056;28;20098;-66
2022/05/06 01:13:11;;;;;;;2.92;0.80;;;;;;;;;;5063599;28;20036;-65
2022/05/06 01:15:40;;;;;;;3.90;0.80;;;;;;;;;;5060916;28;20029;-65
2022/05/06 01:18:12;;;;;;;3.25;0.90;;;;;;;;;;5062336;28;20410;-65
2022/05/06 01:20:42;;;;;;;3.00;0.65;;;;;;;;;;5062274;28;20044;-65
2022/05/06 01:23:09;;;;;;;4.07;0.90;;;;;;;;;;5061876;28;20079;-65
2022/05/06 01:25:36;;;;;;;2.85;0.82;;;;;;;;;;5061830;28;20098;-65
2022/05/06 01:28:03;;;;;;;4.90;0.88;;;;;;;;;;5063942;28;21768;-64
2022/05/06 01:30:42;;;;;;;5.78;1.20;;;;;;;;;;5063599;28;20060;-64
2022/05/06 01:33:09;;;;;;;4.43;1.10;;;;;;;;;;5047466;28;20517;-64
2022/05/06 01:35:39;;;;;;;3.70;1.15;;;;;;;;;;5051578;28;20045;-64
2022/05/06 01:38:06;;;;;;;4.63;1.00;;;;;;;;;;5062367;28;20036;-64
2022/05/06 01:40:42;;;;;;;5.65;1.05;;;;;;;;;;5061056;28;20118;-64
2022/05/06 01:43:11;;;;;;;4.10;1.10;;;;;;;;;;5047540;28;20048;-64
2022/05/06 01:45:38;;;;;;;4.97;1.08;;;;;;;;;;5034078;28;20044;-65
2022/05/06 01:48:05;;;;;;;4.32;1.05;;;;;;;;;;5022381;28;20053;-65
2022/05/06 01:50:36;;;;;;;4.43;0.93;;;;;;;;;;5036167;28;20053;-62
2022/05/06 01:53:03;;;;;;;2.72;0.75;;;;;;;;;;5049048;28;20155;-64
2022/05/06 01:55:30;;;;;;;5.60;1.10;;;;;;;;;;5048325;28;20495;-65
2022/05/06 01:57:57;;;;;;;3.15;0.80;;;;;;;;;;5048867;28;20328;-65
2022/05/06 02:00:24;;;;;;;4.43;1.20;;;;;;;;;;5027569;28;20041;-65
2022/05/06 02:02:51;;;;;;;4.22;1.10;;;;;;;;;;5026782;28;20040;-65
2022/05/06 02:05:18;;;;;;;2.63;1.00;;;;;;;;;;5023672;28;20037;-64
2022/05/06 02:07:45;;;;;;;9.40;1.25;;;;;;;;;;5022804;28;20041;-64
2022/05/06 02:10:12;;;;;;;2.95;0.90;;;;;;;;;;5043551;28;20060;-64
2022/05/06 02:12:39;;;;;;;6.30;1.05;;;;;;;;;;5047616;28;20223;-64
2022/05/06 02:15:06;;;;;;;3.20;0.82;;;;;;;;;;5048353;28;20181;-64
2022/05/06 02:17:33;;;;;;;6.85;1.20;;;;;;;;;;5047623;28;20052;-65
2022/05/06 02:19:59;;;;;;;8.77;1.20;;;;;;;;;;5048288;28;20091;-64
2022/05/06 02:22:29;;;;;;;11.63;1.65;;;;;;;;;;5048702;28;20033;-64
2022/05/06 02:24:55;;;;;;;13.07;1.80;;;;;;;;;;5047798;28;20035;-64
2022/05/06 02:27:23;;;;;;;12.30;1.42;;;;;;;;;;5047737;28;20449;-65
2022/05/06 02:35:21;;;;;;;6.05;1.10;;;;;;;;;;5048373;28;20040;-65
2022/05/06 02:37:48;;;;;;;12.63;0.95;;;;;;;;;;5047756;28;20072;-64
2022/05/06 02:40:14;;;;;;;7.88;1.08;;;;;;;;;;5057236;28;20095;-65
2022/05/06 02:42:41;;;;;;;2.78;0.68;;;;;;;;;;5026266;28;20048;-64
2022/05/06 02:45:08;;;;;;;2.55;0.63;;;;;;;;;;5038724;28;20041;-64
2022/05/06 02:47:35;;;;;;;4.38;0.77;;;;;;;;;;5035015;28;20045;-64
2022/05/06 02:50:02;;;;;;;10.20;0.98;;;;;;;;;;5023546;28;20057;-64
2022/05/06 02:52:28;;;;;;;3.80;0.80;;;;;;;;;;5020086;28;20041;-64
2022/05/06 02:54:55;;;;;;;2.40;0.70;;;;;;;;;;5027710;28;20099;-63
2022/05/06 02:57:22;;;;;;;7.18;0.95;;;;;;;;;;5047573;28;20103;-63
2022/05/06 02:59:48;;;;;;;4.43;0.65;;;;;;;;;;5046842;28;20124;-63
2022/05/06 03:02:15;;;;;;;5.60;1.00;;;;;;;;;;5046306;28;20428;-63
2022/05/06 03:04:42;;;;;;;5.20;1.08;;;;;;;;;;5046015;28;20029;-62
2022/05/06 03:07:09;;;;;;;3.28;0.90;;;;;;;;;;5046492;28;20059;-63
2022/05/06 03:09:39;;;;;;;4.90;0.88;;;;;;;;;;5047931;28;20078;-63
2022/05/06 03:12:06;;;;;;;3.97;0.90;;;;;;;;;;5046510;28;20120;-64
2022/05/06 03:14:33;;;;;;;5.13;0.90;;;;;;;;;;5046091;28;20044;-65
2022/05/06 03:17:00;;;;;;;2.47;0.80;;;;;;;;;;5032308;28;20044;-63
2022/05/06 03:19:27;;;;;;;5.40;1.05;;;;;;;;;;5043315;28;20044;-63
2022/05/06 03:21:57;;;;;;;4.80;1.10;;;;;;;;;;5047072;28;20036;-63
2022/05/06 03:24:23;;;;;;;3.70;1.05;;;;;;;;;;5045357;28;20063;-64
2022/05/06 03:26:50;;;;;;;6.63;1.30;;;;;;;;;;5046984;28;20043;-64
2022/05/06 03:29:17;;;;;;;5.13;1.20;;;;;;;;;;5047093;28;20049;-63
2022/05/06 03:31:43;;;;;;;5.10;1.17;;;;;;;;;;5046259;28;20115;-64
2022/05/06 03:34:11;;;;;;;6.15;1.10;;;;;;;;;;5049930;28;20494;-63
2022/05/06 03:36:38;;;;;;;4.65;1.00;;;;;;;;;;5049302;28;20041;-64
2022/05/06 03:39:11;;;;;;;2.83;0.90;;;;;;;;;;5048792;28;20036;-64
2022/05/06 03:41:38;;;;;;;4.57;0.88;;;;;;;;;;5046353;28;20033;-64
2022/05/06 03:44:07;;;;;;;6.07;1.00;;;;;;;;;;5046260;28;20072;-65
2022/05/06 03:46:37;;;;;;;4.70;1.23;;;;;;;;;;5040938;28;20049;-62
2022/05/06 03:49:04;;;;;;;5.03;1.02;;;;;;;;;;5035699;28;20128;-61
2022/05/06 03:51:31;;;;;;;2.85;0.85;;;;;;;;;;5024218;28;20045;-61
2022/05/06 03:53:58;;;;;;;5.03;0.98;;;;;;;;;;5023628;28;20087;-63
2022/05/06 03:56:27;;;;;;;3.88;0.85;;;;;;;;;;5021894;28;20057;-63
2022/05/06 03:58:54;;;;;;;4.65;1.13;;;;;;;;;;5023087;28;20040;-64
2022/05/06 04:01:21;;;;;;;3.85;1.25;;;;;;;;;;5032878;28;20044;-65
2022/05/06 04:03:47;;;;;;;10.18;1.33;;;;;;;;;;5030771;28;20143;-63
2022/05/06 04:06:14;;;;;;;8.90;1.50;;;;;;;;;;5020313;28;20037;-62
2022/05/06 04:08:42;;;;;;;5.25;1.33;;;;;;;;;;5025171;28;20029;-62
2022/05/06 04:11:10;;;;;;;5.03;1.20;;;;;;;;;;5033217;28;20087;-62
2022/05/06 04:13:36;;;;;;;5.72;1.20;;;;;;;;;;5038084;28;20041;-61
2022/05/06 04:16:04;;;;;;;4.65;1.20;;;;;;;;;;5023220;28;20076;-63
2022/05/06 04:18:31;;;;;;;4.47;1.10;;;;;;;;;;5020447;28;20038;-63
2022/05/06 04:23:43;;;;;;;4.80;0.88;;;;;;;;;;5024240;28;20055;-61
2022/05/06 04:26:11;;;;;;;2.55;0.88;;;;;;;;;;5021926;28;20036;-61
2022/05/06 04:28:38;;;;;;;6.82;1.02;;;;;;;;;;5022854;28;20682;-62
2022/05/06 04:31:06;;;;;;;5.20;1.13;;;;;;;;;;5030129;28;20071;-61
2022/05/06 04:33:34;;;;;;;5.25;1.08;;;;;;;;;;5046697;28;20072;-62
2022/05/06 04:36:01;;;;;;;2.92;1.00;;;;;;;;;;5047938;28;20037;-62
2022/05/06 04:38:28;;;;;;;3.22;0.90;;;;;;;;;;5045779;28;20152;-63
2022/05/06 04:40:59;;;;;;;3.58;1.10;;;;;;;;;;5048719;28;20167;-64
2022/05/06 04:43:26;;;;;;;5.15;1.13;;;;;;;;;;5047968;28;20138;-61
2022/05/06 04:45:53;;;;;;;3.67;0.95;;;;;;;;;;5047498;28;20362;-61
2022/05/06 04:48:20;;;;;;;3.53;0.85;;;;;;;;;;5045267;28;20033;-62
2022/05/06 04:50:47;;;;;;;3.63;0.93;;;;;;;;;;5046850;28;20055;-62
2022/05/06 04:53:15;;;;;;;2.30;0.90;;;;;;;;;;5046964;28;20068;-63
2022/05/06 04:55:43;;;;;;;3.22;0.90;;;;;;;;;;5044927;28;20052;-62
2022/05/06 04:58:10;;;;;;;5.78;1.10;;;;;;;;;;5048378;28;20049;-62
2022/05/06 05:00:36;;;;;;;4.45;1.00;;;;;;;;;;5044713;28;20036;-63
2022/05/06 05:03:04;;;;;;;1.98;0.60;;;;;;;;;;5044375;28;20037;-62
2022/05/06 05:05:31;;;;;;;3.30;0.98;;;;;;;;;;5045560;28;20049;-62
2022/05/06 05:07:57;;;;;;;3.95;1.00;;;;;;;;;;5045419;28;20045;-62
2022/05/06 05:10:24;;;;;;;3.65;1.00;;;;;;;;;;5043747;28;20045;-61
2022/05/06 05:12:51;;;;;;;2.50;0.88;;;;;;;;;;5021045;28;20060;-61
2022/05/06 05:15:18;;;;;;;3.22;0.95;;;;;;;;;;5020862;28;20380;-62
2022/05/06 05:17:45;;;;;;;3.47;0.90;;;;;;;;;;5039645;28;20375;-63
2022/05/06 05:20:15;;;;;;;2.22;0.80;;;;;;;;;;5022757;28;20091;-63
2022/05/06 05:22:42;;;;;;;2.40;0.70;;;;;;;;;;5024163;28;20037;-62
2022/05/06 05:25:09;;;;;;;2.20;0.70;;;;;;;;;;5035129;28;20036;-61
2022/05/06 05:27:39;;;;;;;4.15;0.60;;;;;;;;;;5049465;28;20131;-62
2022/05/06 05:30:07;;;;;;;3.35;0.70;;;;;;;;;;5041172;28;20056;-62
2022/05/06 05:32:34;;;;;;;2.55;0.63;;;;;;;;;;5041830;28;20087;-62
2022/05/06 05:35:01;;;;;;;2.60;0.75;;;;;;;;;;5027862;28;20061;-62
2022/05/06 05:37:28;;;;;;;4.70;0.57;;;;;;;;;;5045457;28;20036;-62
2022/05/06 05:39:55;;;;;;;5.05;0.60;;;;;;;;;;5047643;28;20052;-65
2022/05/06 05:42:22;;;;;;;2.97;0.75;;;;;;;;;;5047840;28;21081;-62
2022/05/06 05:50:19;;;;;;;2.75;0.50;;;;;;;;;;5049180;28;20062;-62
2022/05/06 05:52:46;;;;;;;2.67;0.65;;;;;;;;;;5048552;28;20501;-61
2022/05/06 05:55:14;;;;;;;2.20;0.52;;;;;;;;;;5049997;28;20098;-62
2022/05/06 05:57:41;;;;;;;4.47;0.65;;;;;;;;;;5047931;28;20045;-62
2022/05/06 06:00:08;;;;;;;1.65;0.57;;;;;;;;;;5049994;28;20040;-63
2022/05/06 06:02:35;;;;;;;1.55;0.50;;;;;;;;;;5047278;28;20497;-62
2022/05/06 06:05:02;;;;;;;2.33;0.60;;;;;;;;;;5048922;28;20068;-62
2022/05/06 06:07:29;;;;;;;1.52;0.40;;;;;;;;;;5047174;28;20065;-63
2022/05/06 06:09:56;;;;;;;1.35;0.40;;;;;;;;;;5047637;28;20056;-63
2022/05/06 06:12:22;;;;;;;1.05;0.43;;;;;;;;;;5048510;28;20037;-62
2022/05/06 06:14:49;;;;;;;2.10;0.55;;;;;;;;;;5050632;28;20021;-62
2022/05/06 06:17:15;;;;;;;1.98;0.50;;;;;;;;;;5046858;28;20029;-64
2022/05/06 06:19:42;;;;;;;1.13;0.40;;;;;;;;;;5045955;28;20083;-63
2022/05/06 06:22:10;;;;;;;1.17;0.40;;;;;;;;;;5047033;28;20051;-63
2022/05/06 06:24:36;;;;;;;1.65;0.50;;;;;;;;;;5047047;28;20037;-63
2022/05/06 06:27:03;;;;;;;5.10;0.65;;;;;;;;;;5049406;28;20085;-62
2022/05/06 06:29:35;;;;;;;2.67;0.50;;;;;;;;;;5047273;28;20049;-61
2022/05/06 06:32:01;;;;;;;7.18;0.60;;;;;;;;;;5048580;28;20041;-62
2022/05/06 06:34:28;;;;;;;4.15;0.47;;;;;;;;;;5047698;28;20047;-62
2022/05/06 06:36:55;;;;;;;3.22;0.63;;;;;;;;;;5047769;28;20389;-61
2022/05/06 06:39:21;;;;;;;3.40;0.80;;;;;;;;;;5047815;28;20045;-61
2022/05/06 06:41:48;;;;;;;6.32;0.60;;;;;;;;;;5048623;28;20045;-61
2022/05/06 06:44:15;;;;;;;3.05;0.68;;;;;;;;;;5047921;28;20052;-61
2022/05/06 06:46:42;;;;;;;4.35;0.50;;;;;;;;;;5048592;28;20082;-62
2022/05/06 06:49:10;;;;;;;1.83;0.40;;;;;;;;;;5047461;28;20066;-61
2022/05/06 06:51:37;;;;;;;0.98;0.40;;;;;;;;;;5049310;28;20449;-62
2022/05/06 06:54:04;;;;;;;5.50;0.80;;;;;;;;;;5046969;28;20533;-60
2022/05/06 06:56:31;;;;;;;11.73;1.02;;;;;;;;;;5049245;28;20037;-61
2022/05/06 06:58:57;;;;;;;1.45;0.40;;;;;;;;;;5047454;28;21611;-61
2022/05/06 07:01:24;;;;;;;1.75;0.40;;;;;;;;;;5046419;28;20529;-61
2022/05/06 07:03:51;;;;;;;2.15;0.50;;;;;;;;;;5048941;28;20071;-62
2022/05/06 07:11:55;;;;;;;1.75;0.40;;;;;;;;;;5049035;28;20052;-61
2022/05/06 07:14:23;;;;;;;1.63;0.40;;;;;;;;;;5049285;28;20033;-61
2022/05/06 07:16:51;;;;;;;1.00;0.40;;;;;;;;;;5051079;28;20068;-62
2022/05/06 07:19:17;;;;;;;1.15;0.32;;;;;;;;;;5048642;28;20045;-61
2022/05/06 07:21:44;;;;;;;1.77;0.50;;;;;;;;;;5049131;28;20056;-61
2022/05/06 07:24:11;;;;;;;0.95;0.35;;;;;;;;;;5047355;28;20077;-62
2022/05/06 07:26:38;;;;;;;1.25;0.50;;;;;;;;;;5047888;28;20051;-62
2022/05/06 07:29:04;;;;;;;0.80;0.40;;;;;;;;;;5048911;28;20102;-62
2022/05/06 07:31:31;;;;;;;0.90;0.40;;;;;;;;;;5046249;28;20040;-62
2022/05/06 07:33:58;;;;;;;1.73;0.40;;;;;;;;;;5046766;28;20124;-62
2022/05/06 07:36:24;;;;;;;0.88;0.32;;;;;;;;;;5047287;28;20041;-62
2022/05/06 07:38:51;;;;;;;2.22;0.50;;;;;;;;;;5047122;28;20063;-62
2022/05/06 07:41:18;;;;;;;0.63;0.40;;;;;;;;;;5035656;28;20036;-60
2022/05/06 07:43:45;;;;;;;0.93;0.30;;;;;;;;;;5024220;28;20041;-62
2022/05/06 07:46:12;;;;;;;0.75;0.30;;;;;;;;;;5023266;28;20041;-65
2022/05/06 07:48:39;;;;;;;0.73;0.40;;;;;;;;;;5024294;28;20109;-63
2022/05/06 07:51:06;;;;;;;1.85;0.50;;;;;;;;;;5024982;28;20125;-62
2022/05/06 07:53:33;;;;;;;1.80;0.45;;;;;;;;;;5024069;28;20049;-61
2022/05/06 07:56:00;;;;;;;2.55;0.60;;;;;;;;;;5026783;28;20041;-62
2022/05/06 07:58:27;;;;;;;1.85;0.50;;;;;;;;;;5026731;28;20152;-62
2022/05/06 08:00:54;;;;;;;0.35;0.30;;;;;;;;;;5022540;28;20095;-63
2022/05/06 08:06:22;;;;;;;1.88;0.50;;;;;;;;;;5051283;28;20183;-62
2022/05/06 08:08:49;;;;;;;0.65;0.38;;;;;;;;;;5030196;28;20052;-65
2022/05/06 08:11:17;;;;;;;0.47;0.32;;;;;;;;;;5038407;28;20142;-61
2022/05/06 08:13:44;;;;;;;1.55;0.50;;;;;;;;;;5046691;28;20045;-60
2022/05/06 08:16:11;;;;;;;2.35;0.47;;;;;;;;;;5048101;28;20148;-62
2022/05/06 08:18:38;;;;;;;3.28;0.63;;;;;;;;;;5045010;28;20433;-62
2022/05/06 08:21:05;;;;;;;0.45;0.30;;;;;;;;;;5046364;28;20858;-63
2022/05/06 08:23:31;;;;;;;4.40;0.57;;;;;;;;;;5046284;28;20036;-63
2022/05/06 08:25:58;;;;;;;1.10;0.50;;;;;;;;;;5046687;28;20044;-62
2022/05/06 08:28:25;;;;;;;1.40;0.40;;;;;;;;;;5032073;28;20494;-62
2022/05/06 08:30:52;;;;;;;0.55;0.40;;;;;;;;;;5038380;28;20044;-62
2022/05/06 08:33:19;;;;;;;0.45;0.30;;;;;;;;;;5045766;28;20045;-62
2022/05/06 08:35:46;;;;;;;0.35;0.30;;;;;;;;;;5022088;28;20051;-62
2022/05/06 08:38:15;;;;;;;0.80;0.40;;;;;;;;;;5039357;28;20059;-62
2022/05/06 08:40:42;;;;;;;0.50;0.30;;;;;;;;;;5046074;28;20041;-62
2022/05/06 08:43:08;;;;;;;0.32;0.30;;;;;;;;;;5045565;28;20128;-63
2022/05/06 08:51:08;;;;;;;0.65;0.32;;;;;;;;;;5046218;28;20560;-62
2022/05/06 08:53:40;;;;;;;0.75;0.30;;;;;;;;;;5048012;28;20052;-62
2022/05/06 08:56:07;;;;;;;0.30;0.30;;;;;;;;;;5050523;28;20056;-62
2022/05/06 08:58:35;;;;;;;1.95;0.40;;;;;;;;;;5050365;28;20033;-62
2022/05/06 09:01:02;;;;;;;1.27;0.40;;;;;;;;;;5031478;28;20037;-62
2022/05/06 09:03:29;;;;;;;0.75;0.40;;;;;;;;;;5024677;28;20030;-62
2022/05/06 09:05:59;;;;;;;1.58;0.40;;;;;;;;;;5027033;28;20174;-63
2022/05/06 09:08:36;;;;;;;1.75;0.40;;;;;;;;;;5026404;28;20037;-63
2022/05/06 09:11:04;;;;;;;0.52;0.30;;;;;;;;;;5025668;28;20041;-63
2022/05/06 09:13:32;;;;;;;1.83;0.50;;;;;;;;;;5046303;28;20029;-63
2022/05/06 09:19:11;;;;;;;1.40;0.40;;;;;;;;;;5038942;28;20684;-63
2022/05/06 09:21:39;;;;;;;0.45;0.30;;;;;;;;;;5044961;28;20053;-63
2022/05/06 09:24:18;;;;;;;0.95;0.38;;;;;;;;;;5044832;28;20045;-63
2022/05/06 09:26:57;;;;;;;1.80;0.40;;;;;;;;;;5030463;28;20072;-64
2022/05/06 09:29:28;;;;;;;0.30;0.30;;;;;;;;;;5046353;28;20114;-63
2022/05/06 09:31:56;;;;;;;1.50;0.40;;;;;;;;;;5051349;28;20858;-63
2022/05/06 09:34:28;;;;;;;0.88;0.38;;;;;;;;;;5048756;28;20156;-62
2022/05/06 09:36:55;;;;;;;0.90;0.43;;;;;;;;;;5051435;28;20033;-63
2022/05/06 09:39:22;;;;;;;0.70;0.35;;;;;;;;;;5052880;28;20052;-63
2022/05/06 09:41:49;;;;;;;0.82;0.40;;;;;;;;;;5046768;28;20047;-63
2022/05/06 09:44:23;;;;;;;0.80;0.40;;;;;;;;;;5024799;28;20486;-59
2022/05/06 09:47:07;;;;;;;1.25;0.40;;;;;;;;;;5040553;28;20045;-62
2022/05/06 09:49:40;;;;;;;1.73;0.50;;;;;;;;;;5050913;28;20045;-63
2022/05/06 09:52:11;;;;;;;1.48;0.43;;;;;;;;;;5043470;28;20049;-63
2022/05/06 09:54:38;;;;;;;1.00;0.40;;;;;;;;;;5046978;28;20055;-63
2022/05/06 09:57:06;;;;;;;3.20;0.40;;;;;;;;;;5046915;28;20436;-63
2022/05/06 09:59:33;;;;;;;2.35;0.50;;;;;;;;;;5044501;28;20047;-63
2022/05/06 10:02:00;;;;;;;0.82;0.45;;;;;;;;;;5043217;28;20139;-63
2022/05/06 10:04:26;;;;;;;0.38;0.30;;;;;;;;;;5043607;28;20436;-63
2022/05/06 10:06:55;;;;;;;0.32;0.30;;;;;;;;;;5045198;28;20598;-63
2022/05/06 10:09:23;;;;;;;0.55;0.40;;;;;;;;;;5045962;28;20057;-62
2022/05/06 10:11:53;;;;;;;0.80;0.40;;;;;;;;;;5044103;28;20124;-62
2022/05/06 10:14:21;;;;;;;0.38;0.38;;;;;;;;;;5042776;28;20041;-62
2022/05/06 10:16:48;;;;;;;0.47;0.30;;;;;;;;;;5045400;28;20041;-62
2022/05/06 10:19:27;;;;;;;2.65;0.47;;;;;;;;;;5045660;28;20032;-62
2022/05/06 10:21:55;;;;;;;1.80;0.43;;;;;;;;;;5048005;28;20417;-62
2022/05/06 10:24:22;;;;;;;1.33;0.40;;;;;;;;;;5047155;28;20049;-62
2022/05/06 10:26:50;;;;;;;1.88;0.40;;;;;;;;;;5043414;28;20052;-63
2022/05/06 10:32:45;;;;;;;2.70;0.40;;;;;;;;;;5029971;28;20079;-62
2022/05/06 10:35:15;;;;;;;2.05;0.50;;;;;;;;;;5046939;28;20041;-61
2022/05/06 10:37:46;;;;;;;2.22;0.50;;;;;;;;;;5048501;28;20535;-63
2022/05/06 10:40:42;;;;;;;3.90;0.60;;;;;;;;;;5047699;28;20114;-64
2022/05/06 10:43:08;;;;;;;1.35;0.30;;;;;;;;;;5014509;28;20049;-63
2022/05/06 10:45:36;;;;;;;0.65;0.40;;;;;;;;;;5024581;28;20065;-63
2022/05/06 10:48:18;;;;;;;0.82;0.40;;;;;;;;;;5040147;28;20056;-64
2022/05/06 10:50:45;;;;;;;0.57;0.30;;;;;;;;;;5044754;28;20048;-63
2022/05/06 10:53:31;;;;;;;0.47;0.30;;;;;;;;;;5043831;28;20119;-63
2022/05/06 10:55:58;;;;;;;0.70;0.40;;;;;;;;;;5039207;28;20036;-63
2022/05/06 10:58:24;;;;;;;0.30;0.30;;;;;;;;;;5028761;28;20107;-63
2022/05/06 11:00:59;;;;;;;0.47;0.30;;;;;;;;;;5044463;28;20048;-63
2022/05/06 11:03:26;;;;;;;0.30;0.30;;;;;;;;;;5043486;28;20041;-63
2022/05/06 11:05:53;;;;;;;0.65;0.30;;;;;;;;;;5045229;28;20569;-63
2022/05/06 11:08:21;;;;;;;0.43;0.30;;;;;;;;;;5044818;28;20041;-63
2022/05/06 11:10:49;;;;;;;0.60;0.30;;;;;;;;;;5043761;28;20049;-63
2022/05/06 11:13:18;;;;;;;0.45;0.30;;;;;;;;;;5041896;28;20041;-63
2022/05/06 11:15:45;;;;;;;0.70;0.32;;;;;;;;;;5042929;28;20051;-62
2022/05/06 11:18:11;;;;;;;1.55;0.40;;;;;;;;;;5045015;28;20056;-62
2022/05/06 11:20:39;;;;;;;1.75;0.40;;;;;;;;;;5044064;28;20048;-62
2022/05/06 11:23:07;;;;;;;1.05;0.32;;;;;;;;;;5044204;28;20454;-63
2022/05/06 11:25:34;;;;;;;1.35;0.50;;;;;;;;;;5043975;28;20602;-62
2022/05/06 11:28:02;;;;;;;0.55;0.30;;;;;;;;;;5045223;28;20029;-63
2022/05/06 11:30:30;;;;;;;0.88;0.40;;;;;;;;;;5042911;28;20560;-63
2022/05/06 11:32:58;;;;;;;0.40;0.30;;;;;;;;;;5043306;28;20123;-63
2022/05/06 11:35:48;;;;;;;1.30;0.40;;;;;;;;;;5043892;28;20704;-62
2022/05/06 11:38:15;;;;;;;1.05;0.40;;;;;;;;;;5041874;28;20131;-62
2022/05/06 11:40:42;;;;;;;3.30;0.40;;;;;;;;;;5044761;28;20451;-63
2022/05/06 11:43:19;;;;;;;1.48;0.47;;;;;;;;;;5044245;28;20048;-62
2022/05/06 11:48:41;;;;;;;6.40;0.65;;;;;;;;;;5042161;28;20052;-63
2022/05/06 11:51:08;;;;;;;4.03;0.50;;;;;;;;;;5044028;28;20047;-63
2022/05/06 11:53:35;;;;;;;0.98;0.40;;;;;;;;;;5043928;28;20478;-62
2022/05/06 11:56:02;;;;;;;1.83;0.60;;;;;;;;;;5045785;28;20131;-62
2022/05/06 11:58:29;;;;;;;0.30;0.30;;;;;;;;;;5047536;28;20077;-62
2022/05/06 12:00:56;;;;;;;7.88;0.93;;;;;;;;;;5043985;28;20176;-63
2022/05/06 12:03:24;;;;;;;5.53;0.77;;;;;;;;;;5036604;28;20047;-63
2022/05/06 12:06:09;;;;;;;10.18;0.90;;;;;;;;;;5022133;28;20034;-62
2022/05/06 12:08:37;;;;;;;2.72;0.43;;;;;;;;;;5022932;28;20052;-63
2022/05/06 12:11:07;;;;;;;0.93;0.40;;;;;;;;;;5023314;28;20060;-62
2022/05/06 12:13:40;;;;;;;2.80;0.50;;;;;;;;;;5021005;28;20041;-61
2022/05/06 12:16:08;;;;;;;1.97;0.43;;;;;;;;;;5031231;28;20049;-60
2022/05/06 12:18:36;;;;;;;0.68;0.40;;;;;;;;;;5021994;28;20295;-61
2022/05/06 12:21:23;;;;;;;1.58;0.50;;;;;;;;;;5021088;28;20076;-63
2022/05/06 12:23:58;;;;;;;0.75;0.32;;;;;;;;;;5022490;28;20065;-63
2022/05/06 12:26:35;;;;;;;0.30;0.30;;;;;;;;;;5022591;28;20091;-63
2022/05/06 12:29:03;;;;;;;0.55;0.30;;;;;;;;;;5023989;28;20422;-64
2022/05/06 12:31:33;;;;;;;2.55;0.45;;;;;;;;;;5047998;28;20064;-61
2022/05/06 12:34:06;;;;;;;0.60;0.30;;;;;;;;;;5032442;28;20037;-64
2022/05/06 12:36:32;;;;;;;5.82;0.90;;;;;;;;;;5034189;28;20168;-63
2022/05/06 12:38:59;;;;;;;4.35;0.70;;;;;;;;;;5045096;28;20666;-62
2022/05/06 12:41:27;;;;;;;0.43;0.32;;;;;;;;;;5045729;28;20048;-63
2022/05/06 12:43:58;;;;;;;1.13;0.40;;;;;;;;;;5045766;28;20049;-62
2022/05/06 12:46:33;;;;;;;1.73;0.35;;;;;;;;;;5035918;28;20051;-61
2022/05/06 12:51:46;;;;;;;1.40;0.20;;;;;;;;;;5045413;28;20079;-62
2022/05/06 12:54:13;;;;;;;0.57;0.30;;;;;;;;;;5044229;28;20053;-61
2022/05/06 12:56:41;;;;;;;0.22;0.22;;;;;;;;;;5042810;28;20094;-62
2022/05/06 12:59:08;;;;;;;2.72;0.50;;;;;;;;;;5045041;28;20429;-62
2022/05/06 13:01:35;;;;;;;4.43;0.40;;;;;;;;;;5043010;28;20039;-62
2022/05/06 13:04:02;;;;;;;2.85;0.57;;;;;;;;;;5044345;28;20048;-61
2022/05/06 13:06:32;;;;;;;1.80;0.47;;;;;;;;;;5043415;28;20493;-61
2022/05/06 13:08:59;;;;;;;6.18;0.80;;;;;;;;;;5059224;28;20068;-60
2022/05/06 13:11:26;;;;;;;2.78;0.43;;;;;;;;;;5043543;28;20124;-60
2022/05/06 13:13:52;;;;;;;14.95;1.27;;;;;;;;;;5045709;28;20044;-63
2022/05/06 13:16:19;;;;;;;1.73;0.45;;;;;;;;;;5044989;28;20189;-61
2022/05/06 13:18:46;;;;;;;3.95;0.43;;;;;;;;;;5038738;28;20036;-63
2022/05/06 13:21:13;;;;;;;3.72;0.57;;;;;;;;;;5046905;28;20473;-62
2022/05/06 13:23:44;;;;;;;2.70;0.45;;;;;;;;;;5047559;28;21015;-62
2022/05/06 13:26:10;;;;;;;1.80;0.50;;;;;;;;;;5047466;28;20661;-63
2022/05/06 13:28:37;;;;;;;3.95;0.43;;;;;;;;;;5047979;28;20032;-63
2022/05/06 13:31:04;;;;;;;3.75;1.33;;;;;;;;;;5050208;28;20102;-61
2022/05/06 13:33:31;;;;;;;0.30;0.30;;;;;;;;;;5058867;28;20036;-61
2022/05/06 13:36:01;;;;;;;0.30;0.30;;;;;;;;;;5046465;28;20048;-62
2022/05/06 13:38:28;;;;;;;0.40;0.30;;;;;;;;;;5047476;28;20799;-61
2022/05/06 13:40:55;;;;;;;2.35;0.40;;;;;;;;;;5049743;28;20493;-62
2022/05/06 13:43:22;;;;;;;3.33;0.63;;;;;;;;;;5049019;28;20056;-61
2022/05/06 13:45:49;;;;;;;6.20;0.75;;;;;;;;;;5049868;28;20037;-64
2022/05/06 13:48:16;;;;;;;0.93;0.30;;;;;;;;;;5048257;28;20053;-61
2022/05/06 13:50:42;;;;;;;2.00;0.40;;;;;;;;;;5049368;28;20052;-63
2022/05/06 13:53:09;;;;;;;2.20;0.47;;;;;;;;;;5052350;28;20041;-64
2022/05/06 14:01:08;;;;;;;0.20;0.20;;;;;;;;;;5050167;28;20043;-63
2022/05/06 14:03:35;;;;;;;1.05;0.40;;;;;;;;;;5048897;28;20560;-63
2022/05/06 14:06:01;;;;;;;2.80;0.60;;;;;;;;;;5049820;28;20041;-63
2022/05/06 14:08:28;;;;;;;1.35;0.45;;;;;;;;;;5050165;28;20064;-62
2022/05/06 14:10:55;;;;;;;0.95;0.38;;;;;;;;;;5049169;28;20101;-63
2022/05/06 14:13:22;;;;;;;8.73;0.52;;;;;;;;;;5052827;28;20101;-64
2022/05/06 14:15:49;;;;;;;2.90;0.43;;;;;;;;;;5047137;28;20029;-64
2022/05/06 14:18:16;;;;;;;0.32;0.20;;;;;;;;;;5051660;28;20866;-62
2022/05/06 14:20:42;;;;;;;2.10;0.50;;;;;;;;;;5051164;28;20040;-63
2022/05/06 14:23:12;;;;;;;18.05;1.30;;;;;;;;;;5052280;28;20048;-64
2022/05/06 14:25:42;;;;;;;6.75;1.00;;;;;;;;;;5049938;28;20041;-63
2022/05/06 14:28:12;;;;;;;10.93;0.70;;;;;;;;;;5050441;28;20049;-62
2022/05/06 14:30:41;;;;;;;2.97;0.50;;;;;;;;;;5049267;28;20102;-62
2022/05/06 14:33:11;;;;;;;2.00;0.52;;;;;;;;;;5050061;28;20492;-64
2022/05/06 14:35:38;;;;;;;2.53;0.40;;;;;;;;;;5048206;28;20041;-61
2022/05/06 14:38:05;;;;;;;3.85;0.30;;;;;;;;;;5050714;28;20138;-62
2022/05/06 14:40:32;;;;;;;1.48;0.47;;;;;;;;;;5036906;28;20470;-63
2022/05/06 14:42:59;;;;;;;3.63;0.50;;;;;;;;;;5025558;28;20049;-61
2022/05/06 14:45:26;;;;;;;17.20;1.00;;;;;;;;;;5025147;28;20683;-62
2022/05/06 14:47:53;;;;;;;6.28;0.90;;;;;;;;;;5025719;28;20056;-63
2022/05/06 14:50:20;;;;;;;6.00;0.75;;;;;;;;;;5023622;28;20048;-60
2022/05/06 14:52:47;;;;;;;7.18;1.13;;;;;;;;;;5023184;28;20068;-61
2022/05/06 14:55:14;;;;;;;9.85;0.82;;;;;;;;;;5026116;28;20505;-61
2022/05/06 14:57:41;;;;;;;7.43;0.90;;;;;;;;;;5025642;28;20092;-62
2022/05/06 15:00:09;;;;;;;5.43;0.85;;;;;;;;;;5026743;28;20038;-63
2022/05/06 15:02:36;;;;;;;6.10;0.70;;;;;;;;;;5025174;28;20072;-62
2022/05/06 15:05:03;;;;;;;5.35;0.85;;;;;;;;;;5023904;28;20045;-62
2022/05/06 15:07:30;;;;;;;17.63;1.40;;;;;;;;;;5024998;28;20056;-62
2022/05/06 15:09:56;;;;;;;14.23;1.25;;;;;;;;;;5022921;28;20517;-62
2022/05/06 15:12:23;;;;;;;21.95;2.10;;;;;;;;;;5032621;28;20025;-62
2022/05/06 15:14:50;;;;;;;11.98;1.00;;;;;;;;;;5046761;28;20383;-61
2022/05/06 15:17:17;;;;;;;2.15;0.55;;;;;;;;;;5047413;28;20041;-62
2022/05/06 15:19:44;;;;;;;17.85;1.50;;;;;;;;;;5036974;28;20037;-62
2022/05/06 15:22:11;;;;;;;10.52;0.73;;;;;;;;;;5049338;28;20048;-61
2022/05/06 15:24:38;;;;;;;37.35;3.58;;;;;;;;;;5034532;28;22164;-64
2022/05/06 15:27:11;;;;;;;60.70;5.32;;;;;;;;;;5022360;28;20049;-61
2022/05/06 15:29:37;;;;;;;11.50;0.98;;;;;;;;;;5037468;28;20049;-61
2022/05/06 15:32:05;;;;;;;25.17;2.45;;;;;;;;;;5048639;28;20044;-63
2022/05/06 15:34:31;;;;;;;100.38;9.93;;;;;;;;;;5048935;28;20040;-60